This is the latest recevied weather packets stored in our database for station/object KY4LEX. If no packets are shown the sender has not sent any weather packets the latest 10 day(s).
| Time | Temp. | Humidity | Pressure | Rain* | Wind** | Luminosity | Snow |
|---|---|---|---|---|---|---|---|
| 1777642438 | 11.67° C | 65% | 1019.3 hPa | 0 mm | - | 85 W/m² | - |
| 1777642134 | 11.67° C | 65% | 1019.1 hPa | 0 mm | - | 80 W/m² | - |
| 1777641830 | 11.11° C | 71% | 1019.2 hPa | 0 mm | - | 54 W/m² | - |
| 1777641526 | 10.56° C | 71% | 1019.3 hPa | 0 mm | - | 64 W/m² | - |
| 1777640918 | 10.56° C | 71% | 1019 hPa | 0 mm | - | 83 W/m² | - |
| 1777640615 | 10° C | 73% | 1019 hPa | 0 mm | - | 77 W/m² | - |
| 1777639102 | 8.89° C | 76% | 1018.9 hPa | 0 mm | - | 59 W/m² | - |
| 1777638800 | 8.33° C | 78% | 1019 hPa | 0 mm | - | 47 W/m² | - |
| 1777638500 | 8.33° C | 79% | 1019 hPa | 0 mm | - | 50 W/m² | - |
| 1777638198 | 7.78° C | 79% | 1019.2 hPa | 0 mm | - | 41 W/m² | - |
| 1777637894 | 7.78° C | 82% | 1019.3 hPa | 0 mm | - | 33 W/m² | - |
| 1777637590 | 7.78° C | 83% | 1019.1 hPa | 0 mm | - | 28 W/m² | - |
| 1777637288 | 6.67° C | 87% | 1019.3 hPa | 0 mm | - | 35 W/m² | - |
| 1777636984 | 6.11° C | 94% | 1019.3 hPa | 0 mm | - | 55 W/m² | - |
| 1777636679 | 5.56° C | 96% | 1019.5 hPa | 0 mm | - | 45 W/m² | - |
| 1777636376 | 5.56° C | 98% | 1019.2 hPa | 0 mm | - | 29 W/m² | - |
| 1777635469 | 5° C | 98% | 1019.2 hPa | 0 mm | - | 21 W/m² | - |
| 1777635166 | 5° C | 98% | 1019.1 hPa | 0 mm | - | 20 W/m² | - |
| 1777634862 | 5° C | 99% | 1018.9 hPa | 0 mm | - | 17 W/m² | - |
| 1777634559 | 4.44° C | 98% | 1019.2 hPa | 0 mm | - | 15 W/m² | - |
| 1777634256 | 4.44° C | 98% | 1019 hPa | 0 mm | - | 13 W/m² | - |
| 1777633952 | 4.44° C | 98% | 1019 hPa | 0 mm | - | 12 W/m² | - |
| 1777633650 | 4.44° C | 98% | 1018.7 hPa | 0 mm | - | 10 W/m² | - |
| 1777633348 | 4.44° C | 98% | 1019 hPa | 0 mm | - | 9 W/m² | - |
| 1777633045 | 4.44° C | 98% | 1018.9 hPa | 0 mm | - | 7 W/m² | - |
* Rain latest hour (hover to see other rain measurements)
** Current wind speed in m/s (hover to see current wind gust speed)